sensor_id;sensor_type;location;lat;lon;timestamp;P1;durP1;ratioP1;P2;durP2;ratioP2
76208;SDS011;64990;51.698;-0.292;2023-02-24T00:01:25;21.20;;;7.57;;
76208;SDS011;64990;51.698;-0.292;2023-02-24T00:03:56;35.40;;;6.88;;
76208;SDS011;64990;51.698;-0.292;2023-02-24T00:06:22;37.45;;;8.73;;
76208;SDS011;64990;51.698;-0.292;2023-02-24T00:08:48;27.08;;;9.95;;
76208;SDS011;64990;51.698;-0.292;2023-02-24T00:11:15;26.75;;;7.00;;
76208;SDS011;64990;51.698;-0.292;2023-02-24T00:13:43;20.17;;;6.18;;
76208;SDS011;64990;51.698;-0.292;2023-02-24T00:16:10;42.13;;;11.43;;
76208;SDS011;64990;51.698;-0.292;2023-02-24T00:18:37;34.97;;;12.88;;
76208;SDS011;64990;51.698;-0.292;2023-02-24T00:21:04;33.60;;;8.30;;
76208;SDS011;64990;51.698;-0.292;2023-02-24T00:23:32;30.90;;;7.68;;
76208;SDS011;64990;51.698;-0.292;2023-02-24T00:25:59;19.73;;;6.82;;
76208;SDS011;64990;51.698;-0.292;2023-02-24T00:28:26;26.52;;;9.50;;
76208;SDS011;64990;51.698;-0.292;2023-02-24T00:30:53;14.30;;;6.70;;
76208;SDS011;64990;51.698;-0.292;2023-02-24T00:33:22;25.85;;;7.15;;
76208;SDS011;64990;51.698;-0.292;2023-02-24T00:35:49;43.25;;;10.73;;
76208;SDS011;64990;51.698;-0.292;2023-02-24T00:38:15;37.28;;;7.75;;
76208;SDS011;64990;51.698;-0.292;2023-02-24T00:40:41;26.85;;;6.35;;
76208;SDS011;64990;51.698;-0.292;2023-02-24T00:43:11;23.98;;;6.75;;
76208;SDS011;64990;51.698;-0.292;2023-02-24T00:45:37;20.83;;;7.22;;
76208;SDS011;64990;51.698;-0.292;2023-02-24T00:48:04;26.38;;;8.05;;
76208;SDS011;64990;51.698;-0.292;2023-02-24T00:50:34;23.15;;;7.93;;
76208;SDS011;64990;51.698;-0.292;2023-02-24T00:53:02;28.17;;;7.03;;
76208;SDS011;64990;51.698;-0.292;2023-02-24T00:55:28;27.30;;;7.45;;
76208;SDS011;64990;51.698;-0.292;2023-02-24T00:58:00;33.65;;;9.20;;
76208;SDS011;64990;51.698;-0.292;2023-02-24T01:00:26;24.48;;;5.32;;
76208;SDS011;64990;51.698;-0.292;2023-02-24T01:02:52;27.13;;;8.88;;
76208;SDS011;64990;51.698;-0.292;2023-02-24T01:05:18;27.98;;;6.78;;
76208;SDS011;64990;51.698;-0.292;2023-02-24T01:07:44;34.00;;;9.65;;
76208;SDS011;64990;51.698;-0.292;2023-02-24T01:10:11;17.17;;;7.60;;
76208;SDS011;64990;51.698;-0.292;2023-02-24T01:12:37;52.88;;;8.25;;
76208;SDS011;64990;51.698;-0.292;2023-02-24T01:15:05;33.25;;;7.85;;
76208;SDS011;64990;51.698;-0.292;2023-02-24T01:17:34;34.30;;;6.15;;
76208;SDS011;64990;51.698;-0.292;2023-02-24T01:20:01;19.88;;;6.85;;
76208;SDS011;64990;51.698;-0.292;2023-02-24T01:22:39;33.42;;;7.82;;
76208;SDS011;64990;51.698;-0.292;2023-02-24T01:25:05;37.15;;;7.95;;
76208;SDS011;64990;51.698;-0.292;2023-02-24T01:27:33;35.45;;;6.90;;
76208;SDS011;64990;51.698;-0.292;2023-02-24T01:30:04;22.88;;;8.70;;
76208;SDS011;64990;51.698;-0.292;2023-02-24T01:32:30;27.17;;;8.43;;
76208;SDS011;64990;51.698;-0.292;2023-02-24T01:34:56;37.20;;;7.25;;
76208;SDS011;64990;51.698;-0.292;2023-02-24T01:37:23;24.77;;;8.25;;
76208;SDS011;64990;51.698;-0.292;2023-02-24T01:39:49;23.70;;;7.82;;
76208;SDS011;64990;51.698;-0.292;2023-02-24T01:42:17;28.25;;;7.72;;
76208;SDS011;64990;51.698;-0.292;2023-02-24T01:47:09;27.23;;;6.80;;
76208;SDS011;64990;51.698;-0.292;2023-02-24T01:49:39;37.17;;;8.07;;
76208;SDS011;64990;51.698;-0.292;2023-02-24T01:52:07;20.95;;;7.65;;
76208;SDS011;64990;51.698;-0.292;2023-02-24T01:57:12;22.73;;;8.07;;
76208;SDS011;64990;51.698;-0.292;2023-02-24T01:59:40;19.92;;;7.18;;
76208;SDS011;64990;51.698;-0.292;2023-02-24T02:02:08;36.58;;;12.38;;
76208;SDS011;64990;51.698;-0.292;2023-02-24T02:07:03;22.45;;;7.30;;
76208;SDS011;64990;51.698;-0.292;2023-02-24T02:09:29;30.98;;;6.90;;
76208;SDS011;64990;51.698;-0.292;2023-02-24T02:11:55;25.17;;;6.18;;
76208;SDS011;64990;51.698;-0.292;2023-02-24T02:14:22;23.48;;;8.63;;
76208;SDS011;64990;51.698;-0.292;2023-02-24T02:25:12;15.27;;;7.20;;
76208;SDS011;64990;51.698;-0.292;2023-02-24T02:35:09;23.17;;;8.15;;
76208;SDS011;64990;51.698;-0.292;2023-02-24T02:37:42;21.58;;;6.05;;
76208;SDS011;64990;51.698;-0.292;2023-02-24T02:40:13;23.58;;;8.38;;
76208;SDS011;64990;51.698;-0.292;2023-02-24T02:42:53;13.48;;;5.82;;
76208;SDS011;64990;51.698;-0.292;2023-02-24T02:46:05;24.85;;;5.93;;
76208;SDS011;64990;51.698;-0.292;2023-02-24T02:48:18;14.20;;;5.68;;
76208;SDS011;64990;51.698;-0.292;2023-02-24T02:53:39;16.40;;;6.50;;
76208;SDS011;64990;51.698;-0.292;2023-02-24T02:56:10;21.77;;;7.45;;
76208;SDS011;64990;51.698;-0.292;2023-02-24T02:58:38;22.38;;;8.52;;
76208;SDS011;64990;51.698;-0.292;2023-02-24T03:01:06;19.00;;;7.50;;
76208;SDS011;64990;51.698;-0.292;2023-02-24T03:03:33;29.98;;;5.25;;
76208;SDS011;64990;51.698;-0.292;2023-02-24T03:06:02;20.50;;;6.22;;
76208;SDS011;64990;51.698;-0.292;2023-02-24T03:08:30;15.80;;;5.93;;
76208;SDS011;64990;51.698;-0.292;2023-02-24T03:11:01;12.43;;;5.57;;
76208;SDS011;64990;51.698;-0.292;2023-02-24T03:13:29;31.45;;;6.63;;
76208;SDS011;64990;51.698;-0.292;2023-02-24T03:15:57;26.42;;;6.40;;
76208;SDS011;64990;51.698;-0.292;2023-02-24T03:18:25;23.02;;;7.13;;
76208;SDS011;64990;51.698;-0.292;2023-02-24T03:20:53;14.60;;;6.60;;
76208;SDS011;64990;51.698;-0.292;2023-02-24T03:23:23;17.80;;;6.88;;
76208;SDS011;64990;51.698;-0.292;2023-02-24T03:25:52;23.50;;;5.47;;
76208;SDS011;64990;51.698;-0.292;2023-02-24T03:28:26;31.05;;;7.25;;
76208;SDS011;64990;51.698;-0.292;2023-02-24T03:30:59;21.10;;;7.75;;
76208;SDS011;64990;51.698;-0.292;2023-02-24T03:33:30;23.92;;;5.28;;
76208;SDS011;64990;51.698;-0.292;2023-02-24T03:35:57;11.80;;;5.63;;
76208;SDS011;64990;51.698;-0.292;2023-02-24T03:38:26;17.15;;;5.97;;
76208;SDS011;64990;51.698;-0.292;2023-02-24T03:40:52;20.92;;;6.47;;
76208;SDS011;64990;51.698;-0.292;2023-02-24T03:43:26;31.75;;;6.97;;
76208;SDS011;64990;51.698;-0.292;2023-02-24T03:45:53;22.70;;;5.68;;
76208;SDS011;64990;51.698;-0.292;2023-02-24T03:48:20;14.30;;;5.75;;
76208;SDS011;64990;51.698;-0.292;2023-02-24T03:50:46;18.45;;;7.50;;
76208;SDS011;64990;51.698;-0.292;2023-02-24T04:00:57;15.93;;;5.32;;
76208;SDS011;64990;51.698;-0.292;2023-02-24T04:08:48;14.90;;;6.32;;
76208;SDS011;64990;51.698;-0.292;2023-02-24T04:11:18;11.18;;;5.78;;
76208;SDS011;64990;51.698;-0.292;2023-02-24T04:13:47;15.65;;;4.32;;
76208;SDS011;64990;51.698;-0.292;2023-02-24T04:16:21;19.42;;;5.05;;
76208;SDS011;64990;51.698;-0.292;2023-02-24T04:18:53;15.85;;;5.00;;
76208;SDS011;64990;51.698;-0.292;2023-02-24T04:21:19;26.00;;;5.57;;
76208;SDS011;64990;51.698;-0.292;2023-02-24T04:23:47;19.00;;;6.63;;
76208;SDS011;64990;51.698;-0.292;2023-02-24T04:26:14;15.88;;;5.47;;
76208;SDS011;64990;51.698;-0.292;2023-02-24T04:28:40;10.05;;;4.40;;
76208;SDS011;64990;51.698;-0.292;2023-02-24T04:31:08;21.55;;;6.30;;
76208;SDS011;64990;51.698;-0.292;2023-02-24T04:33:41;17.88;;;6.57;;
76208;SDS011;64990;51.698;-0.292;2023-02-24T04:36:08;14.88;;;4.65;;
76208;SDS011;64990;51.698;-0.292;2023-02-24T04:38:36;27.27;;;7.38;;
76208;SDS011;64990;51.698;-0.292;2023-02-24T04:41:03;13.80;;;3.97;;
76208;SDS011;64990;51.698;-0.292;2023-02-24T04:43:29;16.20;;;4.18;;
76208;SDS011;64990;51.698;-0.292;2023-02-24T04:45:55;18.02;;;5.68;;
76208;SDS011;64990;51.698;-0.292;2023-02-24T04:48:21;16.60;;;5.10;;
76208;SDS011;64990;51.698;-0.292;2023-02-24T04:50:47;27.58;;;4.88;;
76208;SDS011;64990;51.698;-0.292;2023-02-24T04:53:19;8.02;;;4.25;;
76208;SDS011;64990;51.698;-0.292;2023-02-24T04:55:51;14.98;;;5.47;;
76208;SDS011;64990;51.698;-0.292;2023-02-24T04:58:21;13.43;;;4.15;;
76208;SDS011;64990;51.698;-0.292;2023-02-24T05:00:48;19.27;;;5.97;;
76208;SDS011;64990;51.698;-0.292;2023-02-24T05:03:17;20.08;;;4.85;;
76208;SDS011;64990;51.698;-0.292;2023-02-24T05:06:01;23.13;;;5.25;;
76208;SDS011;64990;51.698;-0.292;2023-02-24T05:08:30;18.90;;;4.20;;
76208;SDS011;64990;51.698;-0.292;2023-02-24T05:10:56;22.88;;;6.35;;
76208;SDS011;64990;51.698;-0.292;2023-02-24T05:13:26;21.67;;;7.18;;
76208;SDS011;64990;51.698;-0.292;2023-02-24T05:15:53;15.02;;;5.03;;
76208;SDS011;64990;51.698;-0.292;2023-02-24T05:18:19;9.90;;;4.07;;
76208;SDS011;64990;51.698;-0.292;2023-02-24T05:20:49;29.45;;;7.60;;
76208;SDS011;64990;51.698;-0.292;2023-02-24T05:23:35;14.07;;;4.15;;
76208;SDS011;64990;51.698;-0.292;2023-02-24T05:26:03;25.02;;;6.18;;
76208;SDS011;64990;51.698;-0.292;2023-02-24T05:28:33;9.38;;;4.88;;
76208;SDS011;64990;51.698;-0.292;2023-02-24T05:31:10;19.13;;;3.97;;
76208;SDS011;64990;51.698;-0.292;2023-02-24T05:33:39;20.30;;;5.00;;
76208;SDS011;64990;51.698;-0.292;2023-02-24T05:36:07;13.05;;;5.05;;
76208;SDS011;64990;51.698;-0.292;2023-02-24T05:38:34;17.88;;;4.75;;
76208;SDS011;64990;51.698;-0.292;2023-02-24T05:41:08;10.30;;;3.95;;
76208;SDS011;64990;51.698;-0.292;2023-02-24T05:43:40;17.95;;;4.95;;
76208;SDS011;64990;51.698;-0.292;2023-02-24T05:46:06;13.48;;;4.25;;
76208;SDS011;64990;51.698;-0.292;2023-02-24T05:48:33;18.35;;;5.75;;
76208;SDS011;64990;51.698;-0.292;2023-02-24T05:51:00;16.20;;;5.13;;
76208;SDS011;64990;51.698;-0.292;2023-02-24T05:53:26;16.67;;;4.35;;
76208;SDS011;64990;51.698;-0.292;2023-02-24T05:55:52;14.10;;;4.60;;
76208;SDS011;64990;51.698;-0.292;2023-02-24T05:58:18;16.02;;;4.78;;
76208;SDS011;64990;51.698;-0.292;2023-02-24T06:00:44;13.70;;;4.57;;
76208;SDS011;64990;51.698;-0.292;2023-02-24T06:03:11;26.20;;;4.65;;
76208;SDS011;64990;51.698;-0.292;2023-02-24T06:05:51;17.73;;;4.65;;
76208;SDS011;64990;51.698;-0.292;2023-02-24T06:08:17;12.50;;;4.18;;
76208;SDS011;64990;51.698;-0.292;2023-02-24T06:10:43;20.23;;;5.38;;
76208;SDS011;64990;51.698;-0.292;2023-02-24T06:13:11;20.60;;;5.53;;
76208;SDS011;64990;51.698;-0.292;2023-02-24T06:15:37;23.95;;;6.13;;
76208;SDS011;64990;51.698;-0.292;2023-02-24T06:18:05;16.33;;;4.70;;
76208;SDS011;64990;51.698;-0.292;2023-02-24T06:20:35;6.55;;;4.63;;
76208;SDS011;64990;51.698;-0.292;2023-02-24T06:23:01;16.30;;;5.07;;
76208;SDS011;64990;51.698;-0.292;2023-02-24T06:25:29;13.98;;;3.90;;
76208;SDS011;64990;51.698;-0.292;2023-02-24T06:27:57;9.30;;;4.70;;
76208;SDS011;64990;51.698;-0.292;2023-02-24T06:30:25;17.80;;;4.25;;
76208;SDS011;64990;51.698;-0.292;2023-02-24T06:32:52;10.75;;;4.43;;
76208;SDS011;64990;51.698;-0.292;2023-02-24T06:35:18;11.32;;;3.97;;
76208;SDS011;64990;51.698;-0.292;2023-02-24T06:37:45;17.55;;;5.63;;
76208;SDS011;64990;51.698;-0.292;2023-02-24T06:40:11;13.93;;;5.28;;
76208;SDS011;64990;51.698;-0.292;2023-02-24T06:42:43;12.15;;;4.55;;
76208;SDS011;64990;51.698;-0.292;2023-02-24T06:45:10;10.82;;;4.85;;
76208;SDS011;64990;51.698;-0.292;2023-02-24T06:47:36;13.13;;;4.50;;
76208;SDS011;64990;51.698;-0.292;2023-02-24T06:50:02;14.50;;;5.93;;
76208;SDS011;64990;51.698;-0.292;2023-02-24T06:52:31;15.82;;;4.53;;
76208;SDS011;64990;51.698;-0.292;2023-02-24T06:54:57;17.23;;;5.18;;
76208;SDS011;64990;51.698;-0.292;2023-02-24T06:57:23;18.73;;;4.93;;
76208;SDS011;64990;51.698;-0.292;2023-02-24T06:59:49;15.52;;;5.10;;
76208;SDS011;64990;51.698;-0.292;2023-02-24T07:02:16;24.15;;;6.15;;
76208;SDS011;64990;51.698;-0.292;2023-02-24T07:04:42;16.70;;;4.82;;
76208;SDS011;64990;51.698;-0.292;2023-02-24T07:07:08;19.52;;;5.45;;
76208;SDS011;64990;51.698;-0.292;2023-02-24T07:09:34;14.73;;;4.72;;
76208;SDS011;64990;51.698;-0.292;2023-02-24T07:12:01;16.55;;;5.35;;
76208;SDS011;64990;51.698;-0.292;2023-02-24T07:14:28;20.40;;;6.05;;
76208;SDS011;64990;51.698;-0.292;2023-02-24T07:16:55;13.75;;;6.18;;
76208;SDS011;64990;51.698;-0.292;2023-02-24T07:19:28;11.95;;;4.38;;
76208;SDS011;64990;51.698;-0.292;2023-02-24T07:21:59;13.27;;;5.07;;
76208;SDS011;64990;51.698;-0.292;2023-02-24T07:24:28;26.80;;;5.10;;
76208;SDS011;64990;51.698;-0.292;2023-02-24T07:27:15;13.50;;;5.30;;
76208;SDS011;64990;51.698;-0.292;2023-02-24T07:29:48;18.63;;;6.25;;
76208;SDS011;64990;51.698;-0.292;2023-02-24T07:32:15;20.40;;;5.70;;
76208;SDS011;64990;51.698;-0.292;2023-02-24T07:34:42;35.92;;;6.70;;
76208;SDS011;64990;51.698;-0.292;2023-02-24T07:37:08;12.65;;;4.68;;
76208;SDS011;64990;51.698;-0.292;2023-02-24T07:39:34;10.55;;;4.72;;
76208;SDS011;64990;51.698;-0.292;2023-02-24T07:42:01;21.30;;;4.63;;
76208;SDS011;64990;51.698;-0.292;2023-02-24T07:44:27;21.63;;;6.38;;
76208;SDS011;64990;51.698;-0.292;2023-02-24T07:46:54;30.02;;;5.32;;
76208;SDS011;64990;51.698;-0.292;2023-02-24T07:49:23;17.55;;;4.68;;
76208;SDS011;64990;51.698;-0.292;2023-02-24T07:51:50;26.38;;;7.20;;
76208;SDS011;64990;51.698;-0.292;2023-02-24T07:54:19;21.83;;;4.85;;
76208;SDS011;64990;51.698;-0.292;2023-02-24T07:56:46;13.98;;;5.82;;
76208;SDS011;64990;51.698;-0.292;2023-02-24T07:59:20;9.02;;;4.07;;
76208;SDS011;64990;51.698;-0.292;2023-02-24T08:01:46;27.70;;;6.00;;
76208;SDS011;64990;51.698;-0.292;2023-02-24T08:04:18;15.40;;;5.47;;
76208;SDS011;64990;51.698;-0.292;2023-02-24T08:06:47;14.75;;;5.30;;
76208;SDS011;64990;51.698;-0.292;2023-02-24T08:09:21;24.92;;;6.53;;
76208;SDS011;64990;51.698;-0.292;2023-02-24T08:12:07;17.02;;;4.45;;
76208;SDS011;64990;51.698;-0.292;2023-02-24T08:14:33;23.75;;;7.03;;
76208;SDS011;64990;51.698;-0.292;2023-02-24T08:16:59;9.10;;;3.88;;
76208;SDS011;64990;51.698;-0.292;2023-02-24T08:19:27;14.93;;;5.35;;
76208;SDS011;64990;51.698;-0.292;2023-02-24T08:22:03;18.75;;;5.60;;
76208;SDS011;64990;51.698;-0.292;2023-02-24T08:27:17;33.03;;;5.90;;
76208;SDS011;64990;51.698;-0.292;2023-02-24T08:29:45;22.00;;;5.68;;
76208;SDS011;64990;51.698;-0.292;2023-02-24T08:32:31;24.15;;;5.55;;
76208;SDS011;64990;51.698;-0.292;2023-02-24T08:35:01;13.55;;;6.40;;
76208;SDS011;64990;51.698;-0.292;2023-02-24T08:37:29;12.38;;;4.90;;
76208;SDS011;64990;51.698;-0.292;2023-02-24T08:40:14;17.35;;;4.78;;
76208;SDS011;64990;51.698;-0.292;2023-02-24T08:43:14;11.98;;;3.85;;
76208;SDS011;64990;51.698;-0.292;2023-02-24T08:45:50;17.55;;;4.78;;
76208;SDS011;64990;51.698;-0.292;2023-02-24T08:48:20;17.08;;;5.25;;
76208;SDS011;64990;51.698;-0.292;2023-02-24T08:51:06;5.60;;;4.10;;
76208;SDS011;64990;51.698;-0.292;2023-02-24T08:53:33;15.55;;;5.72;;
76208;SDS011;64990;51.698;-0.292;2023-02-24T08:56:00;24.85;;;6.32;;
76208;SDS011;64990;51.698;-0.292;2023-02-24T08:58:34;9.60;;;4.72;;
76208;SDS011;64990;51.698;-0.292;2023-02-24T09:01:04;12.15;;;5.95;;
76208;SDS011;64990;51.698;-0.292;2023-02-24T09:03:42;16.90;;;5.28;;
76208;SDS011;64990;51.698;-0.292;2023-02-24T09:06:10;12.27;;;5.72;;
76208;SDS011;64990;51.698;-0.292;2023-02-24T09:08:37;18.15;;;5.63;;
76208;SDS011;64990;51.698;-0.292;2023-02-24T09:11:04;13.98;;;4.80;;
76208;SDS011;64990;51.698;-0.292;2023-02-24T09:13:37;17.00;;;5.30;;
76208;SDS011;64990;51.698;-0.292;2023-02-24T09:16:15;7.40;;;4.72;;
76208;SDS011;64990;51.698;-0.292;2023-02-24T09:18:41;19.15;;;5.60;;
76208;SDS011;64990;51.698;-0.292;2023-02-24T09:21:12;17.42;;;6.78;;
76208;SDS011;64990;51.698;-0.292;2023-02-24T09:23:57;15.15;;;5.53;;
76208;SDS011;64990;51.698;-0.292;2023-02-24T09:26:24;22.52;;;6.90;;
76208;SDS011;64990;51.698;-0.292;2023-02-24T09:28:50;18.48;;;6.53;;
76208;SDS011;64990;51.698;-0.292;2023-02-24T09:31:22;19.35;;;5.65;;
76208;SDS011;64990;51.698;-0.292;2023-02-24T09:34:04;16.13;;;5.75;;
76208;SDS011;64990;51.698;-0.292;2023-02-24T09:36:34;28.48;;;6.38;;
76208;SDS011;64990;51.698;-0.292;2023-02-24T09:39:09;17.15;;;5.05;;
76208;SDS011;64990;51.698;-0.292;2023-02-24T09:41:45;17.88;;;5.13;;
76208;SDS011;64990;51.698;-0.292;2023-02-24T09:46:53;13.40;;;4.70;;
76208;SDS011;64990;51.698;-0.292;2023-02-24T09:49:26;18.02;;;5.45;;
76208;SDS011;64990;51.698;-0.292;2023-02-24T09:52:03;9.07;;;4.97;;
76208;SDS011;64990;51.698;-0.292;2023-02-24T09:54:33;25.88;;;6.35;;
76208;SDS011;64990;51.698;-0.292;2023-02-24T09:57:03;18.65;;;5.18;;
76208;SDS011;64990;51.698;-0.292;2023-02-24T10:04:46;10.07;;;4.50;;
76208;SDS011;64990;51.698;-0.292;2023-02-24T10:07:39;23.88;;;5.45;;
76208;SDS011;64990;51.698;-0.292;2023-02-24T10:12:52;10.55;;;4.40;;
76208;SDS011;64990;51.698;-0.292;2023-02-24T10:15:25;16.30;;;4.13;;
76208;SDS011;64990;51.698;-0.292;2023-02-24T10:21:00;17.75;;;5.13;;
76208;SDS011;64990;51.698;-0.292;2023-02-24T10:23:42;11.98;;;4.25;;
76208;SDS011;64990;51.698;-0.292;2023-02-24T10:27:00;23.25;;;5.65;;
76208;SDS011;64990;51.698;-0.292;2023-02-24T10:34:25;8.18;;;4.65;;
76208;SDS011;64990;51.698;-0.292;2023-02-24T10:36:58;14.20;;;4.90;;
76208;SDS011;64990;51.698;-0.292;2023-02-24T10:39:30;11.60;;;4.53;;
76208;SDS011;64990;51.698;-0.292;2023-02-24T10:42:01;23.75;;;7.57;;
76208;SDS011;64990;51.698;-0.292;2023-02-24T10:44:40;14.50;;;5.95;;
76208;SDS011;64990;51.698;-0.292;2023-02-24T10:47:17;9.63;;;5.25;;
76208;SDS011;64990;51.698;-0.292;2023-02-24T10:49:47;18.80;;;5.72;;
76208;SDS011;64990;51.698;-0.292;2023-02-24T10:52:23;10.90;;;4.53;;
76208;SDS011;64990;51.698;-0.292;2023-02-24T10:55:00;15.20;;;4.93;;
76208;SDS011;64990;51.698;-0.292;2023-02-24T10:57:52;28.85;;;6.43;;
76208;SDS011;64990;51.698;-0.292;2023-02-24T11:00:35;13.82;;;7.07;;
76208;SDS011;64990;51.698;-0.292;2023-02-24T11:03:20;19.83;;;5.18;;
76208;SDS011;64990;51.698;-0.292;2023-02-24T11:06:00;13.35;;;4.05;;
76208;SDS011;64990;51.698;-0.292;2023-02-24T11:08:29;13.73;;;5.55;;
76208;SDS011;64990;51.698;-0.292;2023-02-24T11:11:20;8.60;;;4.63;;
76208;SDS011;64990;51.698;-0.292;2023-02-24T11:13:53;12.00;;;4.97;;
76208;SDS011;64990;51.698;-0.292;2023-02-24T11:19:32;12.48;;;4.22;;
76208;SDS011;64990;51.698;-0.292;2023-02-24T11:21:59;14.13;;;5.55;;
76208;SDS011;64990;51.698;-0.292;2023-02-24T11:24:26;13.38;;;5.75;;
76208;SDS011;64990;51.698;-0.292;2023-02-24T11:26:52;13.70;;;6.05;;
76208;SDS011;64990;51.698;-0.292;2023-02-24T11:29:23;16.67;;;5.05;;
76208;SDS011;64990;51.698;-0.292;2023-02-24T11:37:11;16.60;;;7.03;;
76208;SDS011;64990;51.698;-0.292;2023-02-24T11:42:11;16.13;;;6.03;;
76208;SDS011;64990;51.698;-0.292;2023-02-24T11:44:53;12.10;;;5.20;;
76208;SDS011;64990;51.698;-0.292;2023-02-24T11:47:23;24.63;;;7.70;;
76208;SDS011;64990;51.698;-0.292;2023-02-24T11:49:53;14.90;;;7.63;;
76208;SDS011;64990;51.698;-0.292;2023-02-24T11:52:29;16.08;;;6.07;;
76208;SDS011;64990;51.698;-0.292;2023-02-24T11:54:56;12.70;;;5.37;;
76208;SDS011;64990;51.698;-0.292;2023-02-24T11:57:26;19.00;;;4.82;;
76208;SDS011;64990;51.698;-0.292;2023-02-24T12:02:33;38.97;;;8.02;;
76208;SDS011;64990;51.698;-0.292;2023-02-24T12:05:13;11.40;;;6.45;;
76208;SDS011;64990;51.698;-0.292;2023-02-24T12:07:55;13.88;;;7.72;;
76208;SDS011;64990;51.698;-0.292;2023-02-24T12:10:26;22.75;;;6.35;;
76208;SDS011;64990;51.698;-0.292;2023-02-24T12:15:23;28.17;;;8.27;;
76208;SDS011;64990;51.698;-0.292;2023-02-24T12:20:30;16.23;;;5.88;;
76208;SDS011;64990;51.698;-0.292;2023-02-24T12:23:08;14.85;;;5.55;;
76208;SDS011;64990;51.698;-0.292;2023-02-24T12:28:22;12.98;;;4.38;;
76208;SDS011;64990;51.698;-0.292;2023-02-24T12:31:12;7.55;;;2.38;;
76208;SDS011;64990;51.698;-0.292;2023-02-24T12:44:18;11.07;;;4.65;;
76208;SDS011;64990;51.698;-0.292;2023-02-24T12:46:53;20.42;;;2.65;;
76208;SDS011;64990;51.698;-0.292;2023-02-24T12:49:25;20.45;;;4.60;;
76208;SDS011;64990;51.698;-0.292;2023-02-24T12:54:28;26.88;;;5.05;;
76208;SDS011;64990;51.698;-0.292;2023-02-24T12:56:58;24.42;;;4.50;;
76208;SDS011;64990;51.698;-0.292;2023-02-24T12:59:29;16.23;;;6.05;;
76208;SDS011;64990;51.698;-0.292;2023-02-24T13:14:27;26.55;;;5.25;;
76208;SDS011;64990;51.698;-0.292;2023-02-24T13:19:35;12.57;;;3.50;;
76208;SDS011;64990;51.698;-0.292;2023-02-24T13:32:37;8.10;;;3.78;;
76208;SDS011;64990;51.698;-0.292;2023-02-24T13:37:39;8.55;;;3.33;;
76208;SDS011;64990;51.698;-0.292;2023-02-24T13:40:38;15.32;;;4.40;;
76208;SDS011;64990;51.698;-0.292;2023-02-24T13:42:59;19.30;;;5.10;;
76208;SDS011;64990;51.698;-0.292;2023-02-24T13:45:35;26.77;;;5.07;;
76208;SDS011;64990;51.698;-0.292;2023-02-24T13:53:30;40.78;;;5.50;;
76208;SDS011;64990;51.698;-0.292;2023-02-24T14:01:29;10.38;;;3.45;;
76208;SDS011;64990;51.698;-0.292;2023-02-24T14:04:02;7.57;;;3.28;;
76208;SDS011;64990;51.698;-0.292;2023-02-24T14:06:28;20.77;;;4.65;;
76208;SDS011;64990;51.698;-0.292;2023-02-24T14:08:55;17.13;;;4.63;;
76208;SDS011;64990;51.698;-0.292;2023-02-24T14:11:23;14.25;;;3.00;;
76208;SDS011;64990;51.698;-0.292;2023-02-24T14:13:53;30.23;;;5.13;;
76208;SDS011;64990;51.698;-0.292;2023-02-24T14:16:23;11.40;;;3.17;;
76208;SDS011;64990;51.698;-0.292;2023-02-24T14:18:57;11.38;;;5.43;;
76208;SDS011;64990;51.698;-0.292;2023-02-24T14:21:25;13.63;;;3.70;;
76208;SDS011;64990;51.698;-0.292;2023-02-24T14:23:58;9.77;;;2.67;;
76208;SDS011;64990;51.698;-0.292;2023-02-24T14:26:25;15.40;;;3.50;;
76208;SDS011;64990;51.698;-0.292;2023-02-24T14:28:53;9.30;;;2.83;;
76208;SDS011;64990;51.698;-0.292;2023-02-24T14:31:21;19.98;;;4.70;;
76208;SDS011;64990;51.698;-0.292;2023-02-24T14:33:51;10.85;;;3.42;;
76208;SDS011;64990;51.698;-0.292;2023-02-24T14:36:25;10.13;;;3.92;;
76208;SDS011;64990;51.698;-0.292;2023-02-24T14:41:27;12.77;;;2.53;;
76208;SDS011;64990;51.698;-0.292;2023-02-24T14:43:53;14.85;;;3.40;;
76208;SDS011;64990;51.698;-0.292;2023-02-24T14:46:20;12.52;;;3.78;;
76208;SDS011;64990;51.698;-0.292;2023-02-24T14:48:51;25.63;;;4.55;;
76208;SDS011;64990;51.698;-0.292;2023-02-24T14:51:24;7.28;;;3.08;;
76208;SDS011;64990;51.698;-0.292;2023-02-24T14:53:54;16.73;;;3.47;;
76208;SDS011;64990;51.698;-0.292;2023-02-24T14:56:22;9.20;;;2.40;;
76208;SDS011;64990;51.698;-0.292;2023-02-24T14:58:50;10.43;;;2.50;;
76208;SDS011;64990;51.698;-0.292;2023-02-24T15:03:54;14.43;;;3.92;;
76208;SDS011;64990;51.698;-0.292;2023-02-24T15:06:26;8.90;;;3.25;;
76208;SDS011;64990;51.698;-0.292;2023-02-24T15:09:00;13.93;;;3.22;;
76208;SDS011;64990;51.698;-0.292;2023-02-24T15:11:29;26.23;;;5.28;;
76208;SDS011;64990;51.698;-0.292;2023-02-24T15:13:59;20.33;;;3.35;;
76208;SDS011;64990;51.698;-0.292;2023-02-24T15:16:36;14.50;;;2.72;;
76208;SDS011;64990;51.698;-0.292;2023-02-24T15:19:03;21.80;;;5.45;;
76208;SDS011;64990;51.698;-0.292;2023-02-24T15:21:31;13.18;;;4.20;;
76208;SDS011;64990;51.698;-0.292;2023-02-24T15:23:58;7.20;;;2.35;;
76208;SDS011;64990;51.698;-0.292;2023-02-24T15:26:25;12.75;;;3.35;;
76208;SDS011;64990;51.698;-0.292;2023-02-24T15:28:56;18.35;;;4.45;;
76208;SDS011;64990;51.698;-0.292;2023-02-24T15:31:22;16.30;;;3.05;;
76208;SDS011;64990;51.698;-0.292;2023-02-24T15:33:59;19.67;;;4.07;;
76208;SDS011;64990;51.698;-0.292;2023-02-24T15:36:34;23.98;;;4.72;;
76208;SDS011;64990;51.698;-0.292;2023-02-24T15:39:07;21.95;;;5.88;;
76208;SDS011;64990;51.698;-0.292;2023-02-24T15:41:41;23.52;;;4.32;;
76208;SDS011;64990;51.698;-0.292;2023-02-24T15:46:53;15.52;;;4.80;;
76208;SDS011;64990;51.698;-0.292;2023-02-24T15:49:19;41.42;;;5.55;;
76208;SDS011;64990;51.698;-0.292;2023-02-24T15:51:46;14.48;;;3.53;;
76208;SDS011;64990;51.698;-0.292;2023-02-24T15:54:20;13.35;;;3.05;;
76208;SDS011;64990;51.698;-0.292;2023-02-24T15:56:53;18.02;;;4.97;;
76208;SDS011;64990;51.698;-0.292;2023-02-24T15:59:21;16.27;;;4.50;;
76208;SDS011;64990;51.698;-0.292;2023-02-24T16:01:47;21.38;;;4.45;;
76208;SDS011;64990;51.698;-0.292;2023-02-24T16:04:15;16.98;;;4.57;;
76208;SDS011;64990;51.698;-0.292;2023-02-24T16:06:42;10.13;;;3.50;;
76208;SDS011;64990;51.698;-0.292;2023-02-24T16:09:18;11.40;;;4.07;;
76208;SDS011;64990;51.698;-0.292;2023-02-24T16:11:47;11.77;;;4.07;;
76208;SDS011;64990;51.698;-0.292;2023-02-24T16:14:14;19.38;;;3.80;;
76208;SDS011;64990;51.698;-0.292;2023-02-24T16:16:41;18.90;;;3.55;;
76208;SDS011;64990;51.698;-0.292;2023-02-24T16:19:09;26.27;;;5.63;;
76208;SDS011;64990;51.698;-0.292;2023-02-24T16:21:36;15.00;;;3.58;;
76208;SDS011;64990;51.698;-0.292;2023-02-24T16:24:02;15.65;;;3.60;;
76208;SDS011;64990;51.698;-0.292;2023-02-24T16:26:28;16.77;;;4.30;;
76208;SDS011;64990;51.698;-0.292;2023-02-24T16:28:55;11.13;;;2.88;;
76208;SDS011;64990;51.698;-0.292;2023-02-24T16:31:22;12.18;;;1.85;;
76208;SDS011;64990;51.698;-0.292;2023-02-24T16:33:48;14.00;;;2.25;;
76208;SDS011;64990;51.698;-0.292;2023-02-24T16:36:14;17.83;;;3.20;;
76208;SDS011;64990;51.698;-0.292;2023-02-24T16:38:41;11.80;;;2.08;;
76208;SDS011;64990;51.698;-0.292;2023-02-24T16:41:08;3.55;;;1.90;;
76208;SDS011;64990;51.698;-0.292;2023-02-24T16:43:34;4.57;;;2.88;;
76208;SDS011;64990;51.698;-0.292;2023-02-24T16:46:02;5.38;;;2.60;;
76208;SDS011;64990;51.698;-0.292;2023-02-24T16:48:28;7.00;;;2.03;;
76208;SDS011;64990;51.698;-0.292;2023-02-24T16:50:59;13.43;;;3.33;;
76208;SDS011;64990;51.698;-0.292;2023-02-24T16:53:25;7.20;;;2.00;;
76208;SDS011;64990;51.698;-0.292;2023-02-24T16:55:51;6.53;;;2.80;;
76208;SDS011;64990;51.698;-0.292;2023-02-24T16:58:17;15.95;;;2.88;;
76208;SDS011;64990;51.698;-0.292;2023-02-24T17:00:43;9.93;;;4.10;;
76208;SDS011;64990;51.698;-0.292;2023-02-24T17:03:23;21.52;;;3.78;;